Portada
METAR-TAF:

METAR-TAF

Aeroports :

Mandalay, Myanmar

latitud: 21-59N, longitud: 096-06E, altitud: 74 m

Observació

L'informe es va fer fa 33 minuts, a les 04:30 UTC
Vent 2 kt del Oest/Nord-Oest
Temperatura 29°C
Humitat 58%
Pressió 1015 hPa
Visibilitat: 7000 m
Escasses núvols a una alçada de 2000 ft

METAR: VYMD 210430Z 29002KT 7000 FEW020 29/20 Q1015 NOSIG

Hora: 11:33 (05:03 UTC)

Pronòstic

L'informe es va fer fa 6 hores i 3 minuts, a les 23:00 UTC
Pronòstic vàlid del 21 a les 00 UTC al 21 a les 24 UTC
Vent 5 kt del Nord-Est
Visibilitat: 6000 m
Escasses núvols a una alçada de 2000 ft
Evolucionant progressivament
l' 21 a les 00 UTC al 21 a les 02 UTC
Vent 3 kt del Nord
Visibilitat: 4000 m
boirina
Temporalment
l' 21 a les 02 UTC al 21 a les 06 UTC
Vent 4 kt del Nord/Nord-Oest
Visibilitat: 6000 m
Escasses núvols a una alçada de 2000 ft

TAF: VYMD 202300Z 2100/2124 04005KT 6000 FEW020 BECMG 2100/2102 35003KT 4000 BR TEMPO 2102/2106 34004KT 6000 FEW020

Observacions i pronòstics meteorològics de més de 4000 aeroports (METAR i TAF).

Les estacions disponibles són els punts grocs i vermells al mapa.

Posi el ratolí al punt desitjat per veure el nom de l'estació.

Feu clic per veure les observacions i els pronòstics meteorològics.

Per canviar el mapa: feu clic els botons verds amb una creu de color negre per apropar; al botó verd amb un guió per allunyar la imatge; o en les fletxes verdes per a mapes adjacents.


METAR-TAF: